sensor_id;sensor_type;location;lat;lon;timestamp;P1;durP1;ratioP1;P2;durP2;ratioP2
52740;SDS011;38634;52.138;9.912;2023-02-28T00:00:22;10.07;;;3.47;;
52740;SDS011;38634;52.138;9.912;2023-02-28T00:03:07;12.93;;;3.50;;
52740;SDS011;38634;52.138;9.912;2023-02-28T00:05:52;9.70;;;3.45;;
52740;SDS011;38634;52.138;9.912;2023-02-28T00:08:37;6.65;;;3.83;;
52740;SDS011;38634;52.138;9.912;2023-02-28T00:11:22;8.05;;;4.45;;
52740;SDS011;38634;52.138;9.912;2023-02-28T00:14:07;8.45;;;3.35;;
52740;SDS011;38634;52.138;9.912;2023-02-28T00:16:51;6.93;;;3.13;;
52740;SDS011;38634;52.138;9.912;2023-02-28T00:19:36;9.35;;;3.40;;
52740;SDS011;38634;52.138;9.912;2023-02-28T00:22:21;12.73;;;4.07;;
52740;SDS011;38634;52.138;9.912;2023-02-28T00:25:06;9.18;;;3.38;;
52740;SDS011;38634;52.138;9.912;2023-02-28T00:27:52;9.18;;;3.30;;
52740;SDS011;38634;52.138;9.912;2023-02-28T00:30:36;9.88;;;4.07;;
52740;SDS011;38634;52.138;9.912;2023-02-28T00:33:22;9.48;;;3.50;;
52740;SDS011;38634;52.138;9.912;2023-02-28T00:36:07;10.13;;;3.45;;
52740;SDS011;38634;52.138;9.912;2023-02-28T00:38:54;7.78;;;3.03;;
52740;SDS011;38634;52.138;9.912;2023-02-28T00:41:38;8.60;;;3.22;;
52740;SDS011;38634;52.138;9.912;2023-02-28T00:44:23;6.97;;;2.65;;
52740;SDS011;38634;52.138;9.912;2023-02-28T00:47:08;5.97;;;2.90;;
52740;SDS011;38634;52.138;9.912;2023-02-28T00:49:52;10.25;;;3.38;;
52740;SDS011;38634;52.138;9.912;2023-02-28T00:52:37;8.88;;;3.33;;
52740;SDS011;38634;52.138;9.912;2023-02-28T00:55:22;9.80;;;3.40;;
52740;SDS011;38634;52.138;9.912;2023-02-28T00:58:06;8.27;;;3.33;;
52740;SDS011;38634;52.138;9.912;2023-02-28T01:00:51;11.63;;;3.88;;
52740;SDS011;38634;52.138;9.912;2023-02-28T01:03:37;11.38;;;3.92;;
52740;SDS011;38634;52.138;9.912;2023-02-28T01:06:22;11.55;;;3.65;;
52740;SDS011;38634;52.138;9.912;2023-02-28T01:09:07;7.55;;;3.60;;
52740;SDS011;38634;52.138;9.912;2023-02-28T01:11:51;7.32;;;3.47;;
52740;SDS011;38634;52.138;9.912;2023-02-28T01:14:36;12.27;;;3.88;;
52740;SDS011;38634;52.138;9.912;2023-02-28T01:17:21;11.98;;;3.80;;
52740;SDS011;38634;52.138;9.912;2023-02-28T01:20:05;9.20;;;4.15;;
52740;SDS011;38634;52.138;9.912;2023-02-28T01:22:50;8.05;;;3.35;;
52740;SDS011;38634;52.138;9.912;2023-02-28T01:25:35;10.68;;;3.75;;
52740;SDS011;38634;52.138;9.912;2023-02-28T01:28:20;10.82;;;3.95;;
52740;SDS011;38634;52.138;9.912;2023-02-28T01:31:05;12.27;;;3.88;;
52740;SDS011;38634;52.138;9.912;2023-02-28T01:33:50;13.90;;;5.10;;
52740;SDS011;38634;52.138;9.912;2023-02-28T01:36:35;9.35;;;3.40;;
52740;SDS011;38634;52.138;9.912;2023-02-28T01:39:20;9.57;;;3.55;;
52740;SDS011;38634;52.138;9.912;2023-02-28T01:42:05;8.98;;;3.67;;
52740;SDS011;38634;52.138;9.912;2023-02-28T01:48:08;5.40;;;3.17;;
52740;SDS011;38634;52.138;9.912;2023-02-28T01:50:53;6.27;;;3.30;;
52740;SDS011;38634;52.138;9.912;2023-02-28T01:53:42;5.70;;;3.13;;
52740;SDS011;38634;52.138;9.912;2023-02-28T01:56:32;6.70;;;3.40;;
52740;SDS011;38634;52.138;9.912;2023-02-28T01:59:30;8.00;;;3.35;;
52740;SDS011;38634;52.138;9.912;2023-02-28T02:02:23;11.85;;;3.92;;
52740;SDS011;38634;52.138;9.912;2023-02-28T02:05:09;10.85;;;3.65;;
52740;SDS011;38634;52.138;9.912;2023-02-28T02:08:01;9.52;;;3.78;;
52740;SDS011;38634;52.138;9.912;2023-02-28T02:10:53;11.20;;;3.85;;
52740;SDS011;38634;52.138;9.912;2023-02-28T02:23:38;12.55;;;3.95;;
52740;SDS011;38634;52.138;9.912;2023-02-28T02:33:23;9.30;;;3.67;;
52740;SDS011;38634;52.138;9.912;2023-02-28T13:48:48;10.38;;;4.40;;
52740;SDS011;38634;52.138;9.912;2023-02-28T13:51:38;8.23;;;3.90;;
52740;SDS011;38634;52.138;9.912;2023-02-28T14:04:41;9.20;;;5.20;;
52740;SDS011;38634;52.138;9.912;2023-02-28T14:08:07;14.90;;;7.00;;
52740;SDS011;38634;52.138;9.912;2023-02-28T14:11:09;8.27;;;5.05;;
52740;SDS011;38634;52.138;9.912;2023-02-28T14:17:20;19.25;;;5.30;;
52740;SDS011;38634;52.138;9.912;2023-02-28T14:20:05;24.52;;;6.50;;
52740;SDS011;38634;52.138;9.912;2023-02-28T14:23:03;25.83;;;7.03;;
52740;SDS011;38634;52.138;9.912;2023-02-28T14:26:16;28.92;;;7.65;;
52740;SDS011;38634;52.138;9.912;2023-02-28T14:32:46;16.50;;;5.28;;
52740;SDS011;38634;52.138;9.912;2023-02-28T14:38:58;21.58;;;6.63;;
52740;SDS011;38634;52.138;9.912;2023-02-28T14:41:54;31.92;;;8.95;;
52740;SDS011;38634;52.138;9.912;2023-02-28T14:44:38;24.00;;;5.90;;
52740;SDS011;38634;52.138;9.912;2023-02-28T14:47:24;20.63;;;5.78;;
52740;SDS011;38634;52.138;9.912;2023-02-28T14:50:22;38.90;;;9.25;;
52740;SDS011;38634;52.138;9.912;2023-02-28T14:53:21;20.20;;;6.03;;
52740;SDS011;38634;52.138;9.912;2023-02-28T14:56:17;40.35;;;9.10;;
52740;SDS011;38634;52.138;9.912;2023-02-28T14:59:25;25.52;;;7.20;;
52740;SDS011;38634;52.138;9.912;2023-02-28T15:02:19;25.15;;;7.35;;
52740;SDS011;38634;52.138;9.912;2023-02-28T15:14:03;29.52;;;8.90;;
52740;SDS011;38634;52.138;9.912;2023-02-28T15:16:50;28.17;;;7.22;;
52740;SDS011;38634;52.138;9.912;2023-02-28T15:19:40;20.73;;;5.78;;
52740;SDS011;38634;52.138;9.912;2023-02-28T15:22:35;9.77;;;4.65;;
52740;SDS011;38634;52.138;9.912;2023-02-28T15:25:21;13.55;;;4.43;;
52740;SDS011;38634;52.138;9.912;2023-02-28T15:28:09;26.17;;;7.00;;
52740;SDS011;38634;52.138;9.912;2023-02-28T15:31:25;42.28;;;9.50;;
52740;SDS011;38634;52.138;9.912;2023-02-28T15:34:20;27.17;;;7.45;;
52740;SDS011;38634;52.138;9.912;2023-02-28T15:43:18;31.55;;;7.75;;
52740;SDS011;38634;52.138;9.912;2023-02-28T15:46:12;39.28;;;8.45;;
52740;SDS011;38634;52.138;9.912;2023-02-28T15:48:59;23.10;;;6.22;;
52740;SDS011;38634;52.138;9.912;2023-02-28T15:51:44;21.80;;;6.28;;
52740;SDS011;38634;52.138;9.912;2023-02-28T15:54:30;18.90;;;5.68;;
52740;SDS011;38634;52.138;9.912;2023-02-28T15:57:22;41.03;;;9.85;;
52740;SDS011;38634;52.138;9.912;2023-02-28T16:00:13;17.23;;;5.22;;
52740;SDS011;38634;52.138;9.912;2023-02-28T16:03:22;38.50;;;8.75;;
52740;SDS011;38634;52.138;9.912;2023-02-28T16:09:21;26.92;;;8.57;;
52740;SDS011;38634;52.138;9.912;2023-02-28T16:12:08;31.40;;;8.52;;
52740;SDS011;38634;52.138;9.912;2023-02-28T16:14:57;16.08;;;5.88;;
52740;SDS011;38634;52.138;9.912;2023-02-28T16:17:50;33.83;;;9.45;;
52740;SDS011;38634;52.138;9.912;2023-02-28T16:20:34;27.83;;;7.20;;
52740;SDS011;38634;52.138;9.912;2023-02-28T16:23:19;18.42;;;5.22;;
52740;SDS011;38634;52.138;9.912;2023-02-28T16:26:04;10.55;;;3.92;;
52740;SDS011;38634;52.138;9.912;2023-02-28T16:28:49;30.60;;;8.68;;
52740;SDS011;38634;52.138;9.912;2023-02-28T16:31:35;33.90;;;8.27;;
52740;SDS011;38634;52.138;9.912;2023-02-28T16:34:21;22.02;;;6.22;;
52740;SDS011;38634;52.138;9.912;2023-02-28T16:37:16;19.90;;;5.50;;
52740;SDS011;38634;52.138;9.912;2023-02-28T16:40:02;38.88;;;8.68;;
52740;SDS011;38634;52.138;9.912;2023-02-28T16:42:47;16.85;;;5.22;;
52740;SDS011;38634;52.138;9.912;2023-02-28T16:45:34;16.40;;;5.73;;
52740;SDS011;38634;52.138;9.912;2023-02-28T16:48:18;29.88;;;7.93;;
52740;SDS011;38634;52.138;9.912;2023-02-28T16:51:03;34.75;;;8.82;;
52740;SDS011;38634;52.138;9.912;2023-02-28T16:53:48;27.30;;;7.35;;
52740;SDS011;38634;52.138;9.912;2023-02-28T16:56:32;16.85;;;4.63;;
52740;SDS011;38634;52.138;9.912;2023-02-28T16:59:19;20.55;;;5.60;;
52740;SDS011;38634;52.138;9.912;2023-02-28T17:02:12;45.22;;;9.63;;
52740;SDS011;38634;52.138;9.912;2023-02-28T17:04:58;18.58;;;5.88;;
52740;SDS011;38634;52.138;9.912;2023-02-28T17:07:42;20.48;;;6.70;;
52740;SDS011;38634;52.138;9.912;2023-02-28T17:10:28;36.30;;;8.23;;
52740;SDS011;38634;52.138;9.912;2023-02-28T17:13:13;39.83;;;8.88;;
52740;SDS011;38634;52.138;9.912;2023-02-28T17:15:57;29.98;;;7.88;;
52740;SDS011;38634;52.138;9.912;2023-02-28T17:18:42;26.80;;;7.38;;
52740;SDS011;38634;52.138;9.912;2023-02-28T17:21:27;19.73;;;5.07;;
52740;SDS011;38634;52.138;9.912;2023-02-28T17:24:13;37.63;;;8.98;;
52740;SDS011;38634;52.138;9.912;2023-02-28T17:27:01;32.50;;;8.23;;
52740;SDS011;38634;52.138;9.912;2023-02-28T17:29:49;15.98;;;5.40;;
52740;SDS011;38634;52.138;9.912;2023-02-28T17:32:33;31.50;;;7.85;;
52740;SDS011;38634;52.138;9.912;2023-02-28T17:35:18;39.67;;;9.20;;
52740;SDS011;38634;52.138;9.912;2023-02-28T17:38:02;40.63;;;9.00;;
52740;SDS011;38634;52.138;9.912;2023-02-28T17:40:47;16.02;;;4.90;;
52740;SDS011;38634;52.138;9.912;2023-02-28T17:43:32;16.63;;;5.28;;
52740;SDS011;38634;52.138;9.912;2023-02-28T17:46:18;30.90;;;8.23;;
52740;SDS011;38634;52.138;9.912;2023-02-28T17:49:05;45.35;;;9.73;;
52740;SDS011;38634;52.138;9.912;2023-02-28T17:51:50;24.58;;;6.82;;
52740;SDS011;38634;52.138;9.912;2023-02-28T17:54:35;20.30;;;5.50;;
52740;SDS011;38634;52.138;9.912;2023-02-28T17:57:19;31.83;;;7.57;;
52740;SDS011;38634;52.138;9.912;2023-02-28T18:00:04;48.42;;;10.60;;
52740;SDS011;38634;52.138;9.912;2023-02-28T18:02:50;44.80;;;9.60;;
52740;SDS011;38634;52.138;9.912;2023-02-28T18:05:35;22.13;;;6.00;;
52740;SDS011;38634;52.138;9.912;2023-02-28T18:08:20;28.17;;;7.45;;
52740;SDS011;38634;52.138;9.912;2023-02-28T18:11:05;43.45;;;8.88;;
52740;SDS011;38634;52.138;9.912;2023-02-28T18:14:00;31.50;;;9.40;;
52740;SDS011;38634;52.138;9.912;2023-02-28T18:16:45;15.27;;;5.80;;
52740;SDS011;38634;52.138;9.912;2023-02-28T18:19:32;8.85;;;2.75;;
52740;SDS011;38634;52.138;9.912;2023-02-28T18:22:38;25.50;;;6.88;;
52740;SDS011;38634;52.138;9.912;2023-02-28T18:25:23;42.78;;;9.40;;
52740;SDS011;38634;52.138;9.912;2023-02-28T18:28:09;41.47;;;8.93;;
52740;SDS011;38634;52.138;9.912;2023-02-28T18:30:53;25.35;;;7.63;;
52740;SDS011;38634;52.138;9.912;2023-02-28T18:33:38;25.35;;;6.90;;
52740;SDS011;38634;52.138;9.912;2023-02-28T18:36:23;35.30;;;7.82;;
52740;SDS011;38634;52.138;9.912;2023-02-28T18:39:08;34.15;;;7.85;;
52740;SDS011;38634;52.138;9.912;2023-02-28T18:41:54;32.05;;;8.43;;
52740;SDS011;38634;52.138;9.912;2023-02-28T18:44:39;15.93;;;5.22;;
52740;SDS011;38634;52.138;9.912;2023-02-28T18:47:24;19.27;;;5.75;;
52740;SDS011;38634;52.138;9.912;2023-02-28T18:50:09;28.63;;;8.27;;
52740;SDS011;38634;52.138;9.912;2023-02-28T18:52:55;34.97;;;8.68;;
52740;SDS011;38634;52.138;9.912;2023-02-28T18:55:41;15.55;;;5.40;;
52740;SDS011;38634;52.138;9.912;2023-02-28T18:58:26;24.35;;;7.25;;
52740;SDS011;38634;52.138;9.912;2023-02-28T19:01:15;39.38;;;9.98;;
52740;SDS011;38634;52.138;9.912;2023-02-28T19:04:11;18.33;;;5.78;;
52740;SDS011;38634;52.138;9.912;2023-02-28T19:06:56;26.88;;;7.65;;
52740;SDS011;38634;52.138;9.912;2023-02-28T19:09:41;31.08;;;9.18;;
52740;SDS011;38634;52.138;9.912;2023-02-28T19:12:25;47.10;;;10.43;;
52740;SDS011;38634;52.138;9.912;2023-02-28T19:15:10;30.92;;;8.18;;
52740;SDS011;38634;52.138;9.912;2023-02-28T19:17:55;20.38;;;6.03;;
52740;SDS011;38634;52.138;9.912;2023-02-28T19:20:40;29.08;;;7.45;;
52740;SDS011;38634;52.138;9.912;2023-02-28T19:23:25;45.75;;;9.95;;
52740;SDS011;38634;52.138;9.912;2023-02-28T19:26:12;43.53;;;10.38;;
52740;SDS011;38634;52.138;9.912;2023-02-28T19:29:03;19.38;;;6.40;;
52740;SDS011;38634;52.138;9.912;2023-02-28T19:31:47;23.65;;;6.20;;
52740;SDS011;38634;52.138;9.912;2023-02-28T19:34:32;48.65;;;11.25;;
52740;SDS011;38634;52.138;9.912;2023-02-28T19:37:17;35.08;;;8.05;;
52740;SDS011;38634;52.138;9.912;2023-02-28T19:40:02;22.38;;;7.20;;
52740;SDS011;38634;52.138;9.912;2023-02-28T19:42:48;27.40;;;7.50;;
52740;SDS011;38634;52.138;9.912;2023-02-28T19:45:34;37.05;;;8.73;;
52740;SDS011;38634;52.138;9.912;2023-02-28T19:48:21;45.22;;;11.07;;
52740;SDS011;38634;52.138;9.912;2023-02-28T19:51:09;29.25;;;9.23;;
52740;SDS011;38634;52.138;9.912;2023-02-28T19:53:55;32.13;;;8.90;;
52740;SDS011;38634;52.138;9.912;2023-02-28T19:56:40;45.88;;;9.77;;
52740;SDS011;38634;52.138;9.912;2023-02-28T19:59:25;29.90;;;8.52;;
52740;SDS011;38634;52.138;9.912;2023-02-28T20:02:13;26.60;;;6.57;;
52740;SDS011;38634;52.138;9.912;2023-02-28T20:05:00;19.63;;;7.10;;
52740;SDS011;38634;52.138;9.912;2023-02-28T20:07:44;16.98;;;7.22;;
52740;SDS011;38634;52.138;9.912;2023-02-28T20:10:29;18.20;;;8.25;;
52740;SDS011;38634;52.138;9.912;2023-02-28T20:13:13;10.60;;;6.20;;
52740;SDS011;38634;52.138;9.912;2023-02-28T20:15:59;6.85;;;5.03;;
52740;SDS011;38634;52.138;9.912;2023-02-28T20:18:47;11.27;;;5.18;;
52740;SDS011;38634;52.138;9.912;2023-02-28T20:21:36;17.15;;;7.00;;
52740;SDS011;38634;52.138;9.912;2023-02-28T20:24:24;8.45;;;4.93;;
52740;SDS011;38634;52.138;9.912;2023-02-28T20:27:09;11.15;;;5.78;;
52740;SDS011;38634;52.138;9.912;2023-02-28T20:29:54;17.55;;;7.25;;
52740;SDS011;38634;52.138;9.912;2023-02-28T20:32:38;36.15;;;8.65;;
52740;SDS011;38634;52.138;9.912;2023-02-28T20:35:23;34.17;;;9.15;;
52740;SDS011;38634;52.138;9.912;2023-02-28T20:38:08;17.85;;;5.32;;
52740;SDS011;38634;52.138;9.912;2023-02-28T20:40:54;18.13;;;5.75;;
52740;SDS011;38634;52.138;9.912;2023-02-28T20:43:41;33.20;;;8.48;;
52740;SDS011;38634;52.138;9.912;2023-02-28T20:46:26;36.97;;;9.15;;
52740;SDS011;38634;52.138;9.912;2023-02-28T20:49:12;20.35;;;6.40;;
52740;SDS011;38634;52.138;9.912;2023-02-28T20:51:58;19.35;;;5.88;;
52740;SDS011;38634;52.138;9.912;2023-02-28T20:54:43;34.97;;;8.68;;
52740;SDS011;38634;52.138;9.912;2023-02-28T20:57:28;28.27;;;8.30;;
52740;SDS011;38634;52.138;9.912;2023-02-28T21:00:13;24.55;;;7.45;;
52740;SDS011;38634;52.138;9.912;2023-02-28T21:03:01;21.25;;;6.20;;
52740;SDS011;38634;52.138;9.912;2023-02-28T21:05:46;35.08;;;9.70;;
52740;SDS011;38634;52.138;9.912;2023-02-28T21:08:32;34.88;;;10.82;;
52740;SDS011;38634;52.138;9.912;2023-02-28T21:11:28;23.73;;;7.55;;
52740;SDS011;38634;52.138;9.912;2023-02-28T21:14:16;42.35;;;9.82;;
52740;SDS011;38634;52.138;9.912;2023-02-28T21:17:04;32.85;;;9.27;;
52740;SDS011;38634;52.138;9.912;2023-02-28T21:19:51;21.55;;;6.00;;
52740;SDS011;38634;52.138;9.912;2023-02-28T21:22:36;24.70;;;6.70;;
52740;SDS011;38634;52.138;9.912;2023-02-28T21:25:20;33.22;;;8.65;;
52740;SDS011;38634;52.138;9.912;2023-02-28T21:28:06;35.42;;;9.40;;
52740;SDS011;38634;52.138;9.912;2023-02-28T21:30:50;23.80;;;6.80;;
52740;SDS011;38634;52.138;9.912;2023-02-28T21:33:35;22.48;;;7.13;;
52740;SDS011;38634;52.138;9.912;2023-02-28T21:36:20;19.95;;;6.43;;
52740;SDS011;38634;52.138;9.912;2023-02-28T21:39:11;22.05;;;5.72;;
52740;SDS011;38634;52.138;9.912;2023-02-28T21:42:02;18.33;;;4.80;;
52740;SDS011;38634;52.138;9.912;2023-02-28T21:44:47;11.48;;;3.88;;
52740;SDS011;38634;52.138;9.912;2023-02-28T21:47:31;11.43;;;3.80;;
52740;SDS011;38634;52.138;9.912;2023-02-28T21:50:16;11.60;;;4.72;;
52740;SDS011;38634;52.138;9.912;2023-02-28T21:53:00;15.57;;;4.55;;
52740;SDS011;38634;52.138;9.912;2023-02-28T21:55:45;16.13;;;4.45;;
52740;SDS011;38634;52.138;9.912;2023-02-28T21:58:29;18.23;;;5.47;;
52740;SDS011;38634;52.138;9.912;2023-02-28T22:01:15;17.15;;;5.45;;
52740;SDS011;38634;52.138;9.912;2023-02-28T22:04:03;14.10;;;4.53;;
52740;SDS011;38634;52.138;9.912;2023-02-28T22:06:53;11.25;;;3.63;;
52740;SDS011;38634;52.138;9.912;2023-02-28T22:09:41;10.45;;;3.85;;
52740;SDS011;38634;52.138;9.912;2023-02-28T22:12:27;12.15;;;3.85;;
52740;SDS011;38634;52.138;9.912;2023-02-28T22:15:13;12.20;;;4.00;;
52740;SDS011;38634;52.138;9.912;2023-02-28T22:17:58;13.02;;;5.45;;
52740;SDS011;38634;52.138;9.912;2023-02-28T22:20:42;4.72;;;3.65;;
52740;SDS011;38634;52.138;9.912;2023-02-28T22:23:27;11.73;;;4.38;;
52740;SDS011;38634;52.138;9.912;2023-02-28T22:26:13;9.00;;;3.40;;
52740;SDS011;38634;52.138;9.912;2023-02-28T22:29:00;11.57;;;4.32;;
52740;SDS011;38634;52.138;9.912;2023-02-28T22:31:44;11.60;;;3.70;;
52740;SDS011;38634;52.138;9.912;2023-02-28T22:34:29;12.18;;;3.90;;
52740;SDS011;38634;52.138;9.912;2023-02-28T22:37:13;11.48;;;3.90;;
52740;SDS011;38634;52.138;9.912;2023-02-28T22:39:58;9.00;;;4.05;;
52740;SDS011;38634;52.138;9.912;2023-02-28T22:42:42;8.35;;;6.78;;
52740;SDS011;38634;52.138;9.912;2023-02-28T22:45:27;5.95;;;2.78;;
52740;SDS011;38634;52.138;9.912;2023-02-28T22:48:12;12.27;;;4.05;;
52740;SDS011;38634;52.138;9.912;2023-02-28T22:51:03;11.73;;;5.45;;
52740;SDS011;38634;52.138;9.912;2023-02-28T22:53:51;14.45;;;7.03;;
52740;SDS011;38634;52.138;9.912;2023-02-28T22:56:36;11.35;;;3.58;;
52740;SDS011;38634;52.138;9.912;2023-02-28T22:59:21;12.88;;;4.00;;
52740;SDS011;38634;52.138;9.912;2023-02-28T23:02:06;8.40;;;3.55;;
52740;SDS011;38634;52.138;9.912;2023-02-28T23:04:50;6.68;;;6.07;;
52740;SDS011;38634;52.138;9.912;2023-02-28T23:07:38;8.90;;;3.70;;
52740;SDS011;38634;52.138;9.912;2023-02-28T23:10:24;11.68;;;3.72;;
52740;SDS011;38634;52.138;9.912;2023-02-28T23:13:08;9.18;;;3.67;;
52740;SDS011;38634;52.138;9.912;2023-02-28T23:15:53;7.57;;;3.47;;
52740;SDS011;38634;52.138;9.912;2023-02-28T23:18:38;14.23;;;4.78;;
52740;SDS011;38634;52.138;9.912;2023-02-28T23:21:22;17.90;;;5.32;;
52740;SDS011;38634;52.138;9.912;2023-02-28T23:24:08;10.48;;;3.70;;
52740;SDS011;38634;52.138;9.912;2023-02-28T23:26:54;13.23;;;4.30;;
52740;SDS011;38634;52.138;9.912;2023-02-28T23:29:40;13.23;;;4.03;;
52740;SDS011;38634;52.138;9.912;2023-02-28T23:32:24;12.55;;;4.15;;
52740;SDS011;38634;52.138;9.912;2023-02-28T23:35:09;10.57;;;3.58;;
52740;SDS011;38634;52.138;9.912;2023-02-28T23:37:55;11.10;;;3.90;;
52740;SDS011;38634;52.138;9.912;2023-02-28T23:40:41;10.25;;;3.72;;
52740;SDS011;38634;52.138;9.912;2023-02-28T23:43:26;11.68;;;4.20;;
52740;SDS011;38634;52.138;9.912;2023-02-28T23:46:11;12.27;;;4.10;;
52740;SDS011;38634;52.138;9.912;2023-02-28T23:48:57;7.80;;;3.17;;
52740;SDS011;38634;52.138;9.912;2023-02-28T23:51:42;12.45;;;4.13;;
52740;SDS011;38634;52.138;9.912;2023-02-28T23:54:26;5.82;;;3.38;;
52740;SDS011;38634;52.138;9.912;2023-02-28T23:57:12;10.80;;;3.92;;
52740;SDS011;38634;52.138;9.912;2023-02-28T23:59:56;8.05;;;4.43;;
